This is the latest recevied weather packets stored in our database for station/object NW1E. If no packets are shown the sender has not sent any weather packets the latest 10 day(s).
| Time | Temp. | Humidity | Pressure | Rain* | Wind** | Luminosity | Snow |
|---|---|---|---|---|---|---|---|
| 1777850793 | 22.22° C | 86% | 1014.9 hPa | 0 mm | - | 12 W/m² | - |
| 1777850192 | 22.22° C | 86% | 1014.9 hPa | 0 mm | - | 12 W/m² | - |
| 1777847079 | 22.78° C | 85% | 1014.6 hPa | 0 mm | - | 72 W/m² | - |
| 1777846582 | 22.78° C | 85% | 1014.6 hPa | 0 mm | - | 81 W/m² | - |
| 1777845982 | 22.78° C | 85% | 1014.6 hPa | 0 mm | - | 74 W/m² | - |
| 1777845382 | 22.78° C | 85% | 1014.8 hPa | 0 mm | - | 70 W/m² | - |
| 1777843767 | 22.78° C | 84% | 1015 hPa | 0 mm | - | 92 W/m² | - |
| 1777842554 | 22.78° C | 84% | 1015 hPa | 0 mm | - | 153 W/m² | - |
| 1777841765 | 23.33° C | 83% | 1015.1 hPa | 0 mm | - | 153 W/m² | - |
| 1777839453 | 22.78° C | 85% | 1015.3 hPa | 0 mm | - | 206 W/m² | - |
| 1777838155 | 22.78° C | 84% | 1015.4 hPa | 0 mm | - | 171 W/m² | - |
| 1777834232 | 22.78° C | 85% | 1016.1 hPa | 0 mm | - | 267 W/m² | - |
| 1777832730 | 23.33° C | 85% | 1016.2 hPa | 0 mm | - | 635 W/m² | - |
| 1777832129 | 22.78° C | 87% | 1016.2 hPa | 0 mm | - | 512 W/m² | - |
| 1777829722 | 21.11° C | 90% | 1016.8 hPa | 0.25 mm | - | 162 W/m² | - |
| 1777829420 | 21.11° C | 90% | 1016.9 hPa | 0.25 mm | - | 230 W/m² | - |
| 1777827307 | 21.11° C | 88% | 1017.3 hPa | 0 mm | - | 141 W/m² | - |
| 1777827005 | 21.11° C | 88% | 1017.4 hPa | 0 mm | - | 201 W/m² | - |
| 1777826406 | 21.11° C | 89% | 1017.4 hPa | 0 mm | - | 204 W/m² | - |
| 1777824801 | 21.11° C | 89% | 1017.6 hPa | 0 mm | - | 238 W/m² | - |
| 1777823699 | 20.56° C | 90% | 1017.6 hPa | 0 mm | - | 255 W/m² | - |
| 1777821590 | 20° C | 92% | 1017.5 hPa | 0 mm | - | 85 W/m² | - |
| 1777819474 | 20° C | 91% | 1017.3 hPa | 0 mm | - | 69 W/m² | - |
| 1777815859 | 20° C | 92% | 1016.5 hPa | 0 mm | - | 99 W/m² | - |
| 1777813457 | 19.44° C | 92% | 1016.2 hPa | 0 mm | - | 53 W/m² | - |
* Rain latest hour (hover to see other rain measurements)
** Current wind speed in m/s (hover to see current wind gust speed)